createdAt,value
2023-01-20T00:01:12.195Z,86.49
2023-01-20T00:03:40.398Z,86.30
2023-01-20T00:06:08.993Z,87.25
2023-01-20T00:08:38.629Z,87.74
2023-01-20T00:11:07.054Z,87.92
2023-01-20T00:13:35.012Z,88.26
2023-01-20T00:16:03.470Z,89.49
2023-01-20T00:18:31.755Z,91.11
2023-01-20T00:21:04.586Z,90.57
2023-01-20T00:23:33.387Z,90.70
2023-01-20T00:26:05.331Z,91.09
2023-01-20T00:28:33.253Z,90.86
2023-01-20T00:31:11.847Z,90.44
2023-01-20T00:33:39.833Z,90.04
2023-01-20T00:36:08.753Z,89.70
2023-01-20T00:38:36.708Z,90.15
2023-01-20T00:41:06.351Z,90.57
2023-01-20T00:43:34.733Z,90.25
2023-01-20T00:46:02.708Z,91.28
2023-01-20T00:48:30.652Z,90.60
2023-01-20T00:50:58.845Z,88.86
2023-01-20T00:53:26.967Z,88.58
2023-01-20T00:55:54.907Z,89.94
2023-01-20T00:58:24.495Z,89.67
2023-01-20T01:00:56.204Z,89.38
2023-01-20T01:03:24.534Z,89.23
2023-01-20T01:05:52.422Z,89.87
2023-01-20T01:08:20.408Z,90.04
2023-01-20T01:10:48.305Z,90.66
2023-01-20T01:13:16.227Z,90.32
2023-01-20T01:15:50.975Z,91.23
2023-01-20T01:18:19.039Z,91.80
2023-01-20T01:20:46.952Z,91.41
2023-01-20T01:23:14.863Z,91.47
2023-01-20T01:25:42.776Z,91.09
2023-01-20T01:28:10.650Z,91.08
2023-01-20T01:30:38.565Z,90.20
2023-01-20T01:33:07.974Z,89.91
2023-01-20T01:35:35.899Z,89.56
2023-01-20T01:38:03.826Z,89.67
2023-01-20T01:40:31.777Z,90.58
2023-01-20T01:42:59.672Z,91.42
2023-01-20T01:45:29.906Z,91.72
2023-01-20T01:48:04.266Z,91.33
2023-01-20T01:50:38.591Z,92.59
2023-01-20T01:53:08.854Z,92.18
2023-01-20T01:55:40.759Z,93.52
2023-01-20T01:58:13.665Z,94.67
2023-01-20T02:00:42.400Z,94.08
2023-01-20T02:03:10.884Z,94.25
2023-01-20T02:05:40.831Z,96.43
2023-01-20T02:08:09.178Z,95.79
2023-01-20T02:10:37.095Z,95.18
2023-01-20T02:13:06.149Z,94.99
2023-01-20T02:15:41.242Z,93.73
2023-01-20T02:18:29.804Z,94.20
2023-01-20T02:21:25.663Z,95.10
2023-01-20T02:24:20.646Z,96.17
2023-01-20T02:27:09.527Z,95.44
2023-01-20T02:30:09.902Z,93.06
2023-01-20T02:32:47.723Z,93.19
2023-01-20T02:35:25.426Z,92.83
2023-01-20T02:38:00.947Z,92.15
2023-01-20T02:40:32.806Z,92.23
2023-01-20T02:43:10.091Z,92.63
2023-01-20T02:45:44.244Z,92.83
2023-01-20T02:48:19.114Z,92.92
2023-01-20T02:50:55.079Z,94.07
2023-01-20T02:53:26.318Z,94.86
2023-01-20T02:55:56.338Z,95.50
2023-01-20T02:58:31.887Z,96.89
2023-01-20T03:01:04.693Z,97.41
2023-01-20T03:03:38.868Z,97.32
2023-01-20T03:06:13.264Z,98.16
2023-01-20T03:08:42.290Z,95.14
2023-01-20T03:11:10.721Z,94.73
2023-01-20T03:13:44.123Z,94.68
2023-01-20T03:16:15.983Z,93.81
2023-01-20T03:18:46.040Z,93.01
2023-01-20T03:21:14.942Z,93.59
2023-01-20T03:23:46.556Z,93.01
2023-01-20T03:26:16.194Z,92.48
2023-01-20T03:28:45.424Z,91.78
2023-01-20T03:31:17.089Z,91.04
2023-01-20T03:33:48.173Z,89.97
2023-01-20T03:36:17.650Z,91.51
2023-01-20T03:38:46.672Z,93.30
2023-01-20T03:41:21.751Z,93.46
2023-01-20T03:43:57.084Z,93.35
2023-01-20T03:46:31.978Z,93.41
2023-01-20T03:49:09.867Z,92.75
2023-01-20T03:51:53.129Z,93.79
2023-01-20T03:54:25.618Z,96.22
2023-01-20T03:57:04.110Z,100.00
2023-01-20T03:59:35.482Z,100.00
2023-01-20T04:02:07.274Z,100.00
2023-01-20T04:04:41.085Z,100.00
2023-01-20T04:07:15.212Z,100.00
2023-01-20T04:09:48.756Z,100.00
2023-01-20T04:12:16.787Z,100.00
2023-01-20T04:14:44.714Z,100.00
2023-01-20T04:17:14.066Z,100.00
2023-01-20T04:19:43.357Z,100.00
2023-01-20T04:22:18.787Z,100.00
2023-01-20T04:24:52.586Z,100.00
2023-01-20T04:27:20.521Z,100.00
2023-01-20T04:29:48.404Z,100.00
2023-01-20T04:32:16.471Z,100.00
2023-01-20T04:34:45.763Z,100.00
2023-01-20T04:37:13.672Z,100.00
2023-01-20T04:39:41.579Z,100.00
2023-01-20T04:42:10.767Z,100.00
2023-01-20T04:44:38.749Z,100.00
2023-01-20T04:47:07.034Z,100.00
2023-01-20T04:49:35.610Z,100.00
2023-01-20T04:52:05.247Z,100.00
2023-01-20T04:54:33.179Z,100.00
2023-01-20T04:57:01.137Z,100.00
2023-01-20T04:59:29.027Z,99.55
2023-01-20T05:01:57.020Z,99.05
2023-01-20T05:04:25.005Z,100.00
2023-01-20T05:06:52.922Z,100.00
2023-01-20T05:09:22.349Z,100.00
2023-01-20T05:11:50.284Z,100.00
2023-01-20T05:14:18.181Z,100.00
2023-01-20T05:16:47.182Z,100.00
2023-01-20T05:19:15.166Z,100.00
2023-01-20T05:21:43.655Z,100.00
2023-01-20T05:24:11.651Z,100.00
2023-01-20T05:26:42.961Z,100.00
2023-01-20T05:29:10.889Z,100.00
2023-01-20T05:31:43.274Z,100.00
2023-01-20T05:34:11.757Z,100.00
2023-01-20T05:36:39.845Z,100.00
2023-01-20T05:39:07.761Z,100.00
2023-01-20T05:41:35.639Z,100.00
2023-01-20T05:44:04.929Z,100.00
2023-01-20T05:46:32.822Z,100.00
2023-01-20T05:49:02.705Z,99.85
2023-01-20T05:51:30.725Z,99.90
2023-01-20T05:53:58.651Z,99.23
2023-01-20T05:56:26.731Z,99.35
2023-01-20T05:58:56.170Z,99.81
2023-01-20T06:01:25.675Z,100.00
2023-01-20T06:03:53.601Z,100.00
2023-01-20T06:06:21.530Z,100.00
2023-01-20T06:08:49.692Z,100.00
2023-01-20T06:11:18.089Z,100.00
2023-01-20T06:13:48.111Z,100.00
2023-01-20T06:16:16.089Z,100.00
2023-01-20T06:18:45.506Z,100.00
2023-01-20T06:21:13.473Z,100.00
2023-01-20T06:23:41.834Z,98.11
2023-01-20T06:26:14.045Z,97.31
2023-01-20T06:28:42.196Z,97.70
2023-01-20T06:31:11.915Z,98.11
2023-01-20T06:33:40.054Z,98.18
2023-01-20T06:36:11.059Z,97.37
2023-01-20T06:38:38.956Z,97.87
2023-01-20T06:41:10.890Z,96.29
2023-01-20T06:43:40.226Z,95.45
2023-01-20T06:46:11.077Z,94.71
2023-01-20T06:48:39.100Z,94.05
2023-01-20T06:51:11.738Z,95.23
2023-01-20T06:53:40.009Z,94.26
2023-01-20T06:56:08.637Z,95.27
2023-01-20T06:58:36.565Z,94.41
2023-01-20T07:01:09.947Z,94.42
2023-01-20T07:03:38.457Z,94.06
2023-01-20T07:06:15.596Z,93.88
2023-01-20T07:08:44.935Z,93.89
2023-01-20T07:11:13.477Z,92.62
2023-01-20T07:13:41.487Z,93.10
2023-01-20T07:16:12.013Z,93.94
2023-01-20T07:18:41.744Z,94.86
2023-01-20T07:21:12.994Z,95.20
2023-01-20T07:23:41.271Z,94.84
2023-01-20T07:26:10.649Z,94.59
2023-01-20T07:28:39.246Z,94.89
2023-01-20T07:31:08.952Z,94.17
2023-01-20T07:33:37.738Z,94.63
2023-01-20T07:36:08.002Z,94.45
2023-01-20T07:38:38.187Z,93.51
2023-01-20T07:41:10.841Z,94.32
2023-01-20T07:43:38.841Z,94.14
2023-01-20T07:46:07.136Z,93.30
2023-01-20T07:48:35.326Z,93.58
2023-01-20T07:51:05.848Z,93.21
2023-01-20T07:53:35.537Z,92.69
2023-01-20T07:56:06.146Z,92.25
2023-01-20T07:58:34.829Z,92.12
2023-01-20T08:01:09.423Z,92.15
2023-01-20T08:03:38.200Z,92.39
2023-01-20T08:06:08.056Z,92.63
2023-01-20T08:08:36.422Z,92.19
2023-01-20T08:11:07.921Z,91.16
2023-01-20T08:13:36.258Z,89.63
2023-01-20T08:16:06.444Z,90.37
2023-01-20T08:18:35.381Z,90.83
2023-01-20T08:21:06.498Z,89.36
2023-01-20T08:23:34.699Z,89.13
2023-01-20T08:26:04.606Z,87.97
2023-01-20T08:28:35.606Z,85.56
2023-01-20T08:31:08.803Z,85.69
2023-01-20T08:33:37.265Z,84.22
2023-01-20T08:36:07.388Z,83.20
2023-01-20T08:38:35.796Z,82.74
2023-01-20T08:41:06.957Z,81.75
2023-01-20T08:43:36.414Z,80.46
2023-01-20T08:46:06.603Z,79.84
2023-01-20T08:48:34.726Z,80.29
2023-01-20T08:51:05.555Z,80.07
2023-01-20T08:53:33.634Z,78.69
2023-01-20T08:56:03.048Z,78.80
2023-01-20T08:58:31.929Z,78.72
2023-01-20T09:01:01.903Z,78.51
2023-01-20T09:03:32.243Z,77.74
2023-01-20T09:06:03.336Z,78.14
2023-01-20T09:08:31.471Z,77.86
2023-01-20T09:11:03.798Z,77.31
2023-01-20T09:13:31.810Z,77.36
2023-01-20T09:16:01.331Z,78.00
2023-01-20T09:18:29.452Z,76.57
2023-01-20T09:20:58.837Z,76.51
2023-01-20T09:23:26.834Z,76.45
2023-01-20T09:25:54.777Z,76.55
2023-01-20T09:28:22.693Z,75.72
2023-01-20T09:30:50.740Z,75.34
2023-01-20T09:33:20.064Z,75.29
2023-01-20T09:35:55.384Z,75.59
2023-01-20T09:38:40.638Z,73.61
2023-01-20T09:41:35.477Z,72.18
2023-01-20T09:44:18.103Z,71.52
2023-01-20T09:47:23.316Z,70.71
2023-01-20T09:50:24.667Z,68.19
2023-01-20T09:53:02.615Z,66.44
2023-01-20T09:55:36.331Z,66.12
2023-01-20T09:58:12.271Z,64.38
2023-01-20T10:00:43.759Z,65.40
2023-01-20T10:03:17.444Z,62.34
2023-01-20T10:05:50.916Z,59.47
2023-01-20T10:08:24.442Z,61.78
2023-01-20T10:10:58.270Z,60.16
2023-01-20T10:13:30.291Z,59.66
2023-01-20T10:15:58.576Z,61.39
2023-01-20T10:18:34.311Z,60.96
2023-01-20T10:21:11.462Z,58.88
2023-01-20T10:23:47.844Z,54.38
2023-01-20T10:26:22.873Z,53.42
2023-01-20T10:28:57.589Z,55.19
2023-01-20T10:31:29.026Z,56.01
2023-01-20T10:34:01.785Z,53.18
2023-01-20T10:36:32.251Z,55.82
2023-01-20T10:39:05.607Z,56.62
2023-01-20T10:41:39.353Z,55.02
2023-01-20T10:44:12.525Z,53.44
2023-01-20T10:46:55.296Z,55.54
2023-01-20T10:49:40.300Z,54.74
2023-01-20T10:52:30.754Z,52.16
2023-01-20T10:55:08.787Z,54.76
2023-01-20T10:57:38.349Z,55.40
2023-01-20T11:00:08.942Z,57.02
2023-01-20T11:02:38.192Z,57.17
2023-01-20T11:05:18.186Z,56.17
2023-01-20T11:07:48.776Z,56.85
2023-01-20T11:10:18.959Z,57.98
2023-01-20T11:12:51.288Z,57.62
2023-01-20T11:15:21.659Z,58.85
2023-01-20T11:18:21.331Z,59.37
2023-01-20T11:20:51.536Z,60.04
2023-01-20T11:23:23.809Z,58.17
2023-01-20T11:25:57.592Z,58.82
2023-01-20T11:28:26.661Z,59.61
2023-01-20T11:30:56.888Z,57.63
2023-01-20T11:33:28.262Z,58.35
2023-01-20T11:36:01.328Z,58.04
2023-01-20T11:38:32.654Z,58.68
2023-01-20T11:41:00.621Z,59.96
2023-01-20T11:43:33.257Z,59.31
2023-01-20T11:46:22.570Z,59.74
2023-01-20T11:48:50.982Z,58.05
2023-01-20T11:51:25.361Z,58.86
2023-01-20T11:54:08.149Z,60.24
2023-01-20T11:56:42.028Z,60.81
2023-01-20T11:59:22.345Z,59.92
2023-01-20T12:01:57.844Z,56.63
2023-01-20T12:04:45.548Z,56.87
2023-01-20T12:07:19.025Z,56.60
2023-01-20T12:09:52.436Z,57.72
2023-01-20T12:12:29.119Z,58.03
2023-01-20T12:15:03.954Z,57.83
2023-01-20T12:17:46.977Z,59.03
2023-01-20T12:20:25.326Z,58.87
2023-01-20T12:23:06.991Z,57.55
2023-01-20T12:25:43.399Z,57.85
2023-01-20T12:28:17.858Z,57.82
2023-01-20T12:30:52.593Z,58.15
2023-01-20T12:33:25.943Z,60.44
2023-01-20T12:36:38.631Z,60.79
2023-01-20T12:39:26.243Z,59.44
2023-01-20T12:42:20.164Z,57.91
2023-01-20T12:44:52.401Z,58.78
2023-01-20T12:47:35.857Z,58.42
2023-01-20T12:50:21.220Z,57.25
2023-01-20T12:53:03.503Z,58.92
2023-01-20T12:55:41.260Z,58.28
2023-01-20T12:58:22.348Z,59.66
2023-01-20T13:01:19.115Z,59.96
2023-01-20T13:04:06.219Z,58.95
2023-01-20T13:06:43.383Z,59.20
2023-01-20T13:09:25.631Z,59.29
2023-01-20T13:12:07.433Z,61.19
2023-01-20T13:14:43.164Z,60.78
2023-01-20T13:17:33.004Z,61.16
2023-01-20T13:20:04.842Z,62.70
2023-01-20T13:22:32.866Z,63.17
2023-01-20T13:25:04.821Z,63.94
2023-01-20T13:27:36.963Z,64.14
2023-01-20T13:30:08.554Z,64.92
2023-01-20T13:32:46.205Z,63.44
2023-01-20T13:35:48.909Z,65.00
2023-01-20T13:38:22.586Z,63.41
2023-01-20T13:40:55.751Z,64.26
2023-01-20T13:43:48.412Z,64.91
2023-01-20T13:46:44.774Z,64.91
2023-01-20T13:49:28.993Z,64.00
2023-01-20T13:51:57.346Z,64.40
2023-01-20T13:54:46.306Z,66.52
2023-01-20T13:57:47.213Z,65.58
2023-01-20T14:00:16.970Z,66.70
2023-01-20T14:02:47.526Z,65.46
2023-01-20T14:05:31.345Z,66.31
2023-01-20T14:08:00.026Z,65.75
2023-01-20T14:10:28.591Z,67.00
2023-01-20T14:12:56.614Z,67.48
2023-01-20T14:15:33.320Z,67.88
2023-01-20T14:18:03.380Z,68.28
2023-01-20T14:20:31.962Z,68.88
2023-01-20T14:23:26.552Z,69.07
2023-01-20T14:26:03.718Z,69.35
2023-01-20T14:28:32.102Z,70.43
2023-01-20T14:31:17.832Z,69.19
2023-01-20T14:33:54.267Z,70.89
2023-01-20T14:36:24.376Z,70.26
2023-01-20T14:38:58.365Z,70.88
2023-01-20T14:41:29.865Z,71.44
2023-01-20T14:43:58.594Z,72.42
2023-01-20T14:46:28.260Z,72.35
2023-01-20T14:48:58.184Z,73.17
2023-01-20T14:51:26.502Z,72.63
2023-01-20T14:54:29.430Z,74.62
2023-01-20T14:56:58.097Z,74.40
2023-01-20T14:59:26.708Z,74.47
2023-01-20T15:01:56.644Z,74.21
2023-01-20T15:04:26.061Z,75.02
2023-01-20T15:06:57.282Z,74.73
2023-01-20T15:09:31.364Z,74.70
2023-01-20T15:12:17.618Z,75.50
2023-01-20T15:15:01.694Z,76.67
2023-01-20T15:17:29.567Z,76.26
2023-01-20T15:19:58.878Z,76.94
2023-01-20T15:22:28.411Z,77.59
2023-01-20T15:24:56.447Z,77.23
2023-01-20T15:27:28.065Z,77.18
2023-01-20T15:30:16.232Z,78.22
2023-01-20T15:32:44.257Z,77.60
2023-01-20T15:35:20.057Z,78.11
2023-01-20T15:37:48.360Z,77.83
2023-01-20T15:40:18.546Z,77.95
2023-01-20T15:42:46.897Z,77.82
2023-01-20T15:45:16.034Z,78.74
2023-01-20T15:47:45.044Z,78.80
2023-01-20T15:50:17.877Z,78.21
2023-01-20T15:52:46.040Z,79.49
2023-01-20T15:55:15.389Z,78.47
2023-01-20T15:57:44.204Z,78.39
2023-01-20T16:00:23.096Z,78.18
2023-01-20T16:02:51.230Z,77.82
2023-01-20T16:05:20.565Z,79.15
2023-01-20T16:07:49.821Z,79.57
2023-01-20T16:10:18.873Z,79.56
2023-01-20T16:12:47.903Z,80.98
2023-01-20T16:15:17.816Z,80.05
2023-01-20T16:17:46.087Z,80.70
2023-01-20T16:20:21.597Z,80.95
2023-01-20T16:22:49.532Z,80.80
2023-01-20T16:25:17.748Z,79.98
2023-01-20T16:27:45.770Z,79.56
2023-01-20T16:30:17.034Z,79.32
2023-01-20T16:32:46.385Z,79.71
2023-01-20T16:35:15.187Z,80.52
2023-01-20T16:37:46.616Z,81.29
2023-01-20T16:40:16.684Z,80.74
2023-01-20T16:42:44.746Z,81.45
2023-01-20T16:45:24.439Z,80.82
2023-01-20T16:47:52.634Z,81.66
2023-01-20T16:50:20.841Z,81.90
2023-01-20T16:52:50.168Z,82.83
2023-01-20T16:55:18.287Z,83.27
2023-01-20T16:57:46.179Z,84.29
2023-01-20T17:00:18.471Z,84.27
2023-01-20T17:02:50.499Z,84.53
2023-01-20T17:05:22.321Z,85.23
2023-01-20T17:07:51.677Z,86.88
2023-01-20T17:10:20.568Z,85.32
2023-01-20T17:12:49.071Z,85.44
2023-01-20T17:15:17.103Z,86.15
2023-01-20T17:17:48.486Z,86.99
2023-01-20T17:20:17.670Z,87.73
2023-01-20T17:22:46.021Z,86.98
2023-01-20T17:25:17.933Z,87.22
2023-01-20T17:27:46.112Z,86.58
2023-01-20T17:30:15.403Z,86.23
2023-01-20T17:32:47.322Z,86.83
2023-01-20T17:35:16.498Z,92.77
2023-01-20T17:37:44.917Z,96.02
2023-01-20T17:40:16.149Z,95.74
2023-01-20T17:42:44.751Z,98.35
2023-01-20T17:45:13.389Z,100.00
2023-01-20T17:47:41.631Z,100.00
2023-01-20T17:50:10.777Z,100.00
2023-01-20T17:52:38.719Z,100.00
2023-01-20T17:55:07.357Z,100.00
2023-01-20T17:57:37.192Z,100.00
2023-01-20T18:00:06.715Z,100.00
2023-01-20T18:02:34.655Z,100.00
2023-01-20T18:05:03.110Z,100.00
2023-01-20T18:07:31.079Z,100.00
2023-01-20T18:09:59.256Z,100.00
2023-01-20T18:12:27.377Z,100.00
2023-01-20T18:14:58.714Z,100.00
2023-01-20T18:17:26.787Z,100.00
2023-01-20T18:19:54.858Z,100.00
2023-01-20T18:22:22.841Z,100.00
2023-01-20T18:24:50.779Z,100.00
2023-01-20T18:27:19.250Z,100.00
2023-01-20T18:29:47.222Z,100.00
2023-01-20T18:32:16.609Z,100.00
2023-01-20T18:34:44.598Z,100.00
2023-01-20T18:37:12.532Z,100.00
2023-01-20T18:39:40.919Z,100.00
2023-01-20T18:42:09.021Z,100.00
2023-01-20T18:44:37.216Z,100.00
2023-01-20T18:47:05.201Z,100.00
2023-01-20T18:49:34.482Z,100.00
2023-01-20T18:52:02.557Z,100.00
2023-01-20T18:54:33.441Z,100.00
2023-01-20T18:57:01.814Z,100.00
2023-01-20T18:59:30.948Z,100.00
2023-01-20T19:01:59.535Z,100.00
2023-01-20T19:04:28.095Z,100.00
2023-01-20T19:06:58.522Z,100.00
2023-01-20T19:09:26.901Z,100.00
2023-01-20T19:11:55.489Z,100.00
2023-01-20T19:14:24.047Z,100.00
2023-01-20T19:16:52.262Z,100.00
2023-01-20T19:19:20.172Z,100.00
2023-01-20T19:21:51.712Z,100.00
2023-01-20T19:24:23.130Z,100.00
2023-01-20T19:26:51.510Z,100.00
2023-01-20T19:29:20.652Z,100.00
2023-01-20T19:31:49.256Z,100.00
2023-01-20T19:34:18.355Z,100.00
2023-01-20T19:36:47.194Z,100.00
2023-01-20T19:39:16.334Z,100.00
2023-01-20T19:41:47.113Z,100.00
2023-01-20T19:44:16.071Z,100.00
2023-01-20T19:46:46.200Z,100.00
2023-01-20T19:49:15.078Z,100.00
2023-01-20T19:51:44.377Z,100.00
2023-01-20T19:54:15.611Z,100.00
2023-01-20T19:56:45.083Z,100.00
2023-01-20T19:59:15.745Z,100.00
2023-01-20T20:01:45.276Z,100.00
2023-01-20T20:04:15.064Z,100.00
2023-01-20T20:06:47.727Z,100.00
2023-01-20T20:09:18.421Z,100.00
2023-01-20T20:11:49.473Z,100.00
2023-01-20T20:14:20.796Z,100.00
2023-01-20T20:16:49.775Z,100.00
2023-01-20T20:19:20.554Z,100.00
2023-01-20T20:21:49.158Z,100.00
2023-01-20T20:24:19.117Z,100.00
2023-01-20T20:26:49.364Z,100.00
2023-01-20T20:29:20.294Z,100.00
2023-01-20T20:31:48.736Z,100.00
2023-01-20T20:34:19.008Z,100.00
2023-01-20T20:36:47.641Z,100.00
2023-01-20T20:39:17.614Z,100.00
2023-01-20T20:41:46.349Z,100.00
2023-01-20T20:44:16.044Z,100.00
2023-01-20T20:46:44.624Z,100.00
2023-01-20T20:49:15.281Z,100.00
2023-01-20T20:51:43.346Z,100.00
2023-01-20T20:54:13.145Z,100.00
2023-01-20T20:56:41.226Z,100.00
2023-01-20T20:59:10.603Z,100.00
2023-01-20T21:01:40.685Z,100.00
2023-01-20T21:04:09.110Z,100.00
2023-01-20T21:06:37.086Z,100.00
2023-01-20T21:09:05.100Z,100.00
2023-01-20T21:11:33.254Z,100.00
2023-01-20T21:14:01.174Z,100.00
2023-01-20T21:16:29.173Z,100.00
2023-01-20T21:18:59.504Z,100.00
2023-01-20T21:21:29.111Z,100.00
2023-01-20T21:23:58.365Z,100.00
2023-01-20T21:26:30.175Z,100.00
2023-01-20T21:29:01.753Z,100.00
2023-01-20T21:31:31.108Z,100.00
2023-01-20T21:34:01.386Z,100.00
2023-01-20T21:36:30.558Z,100.00
2023-01-20T21:38:59.675Z,100.00
2023-01-20T21:41:27.612Z,100.00
2023-01-20T21:44:12.823Z,100.00
2023-01-20T21:46:41.475Z,100.00
2023-01-20T21:49:28.264Z,100.00
2023-01-20T21:52:13.712Z,100.00
2023-01-20T21:54:41.876Z,100.00
2023-01-20T21:57:10.274Z,100.00
2023-01-20T21:59:38.552Z,100.00
2023-01-20T22:02:06.937Z,100.00
2023-01-20T22:04:36.298Z,100.00
2023-01-20T22:07:04.192Z,100.00
2023-01-20T22:09:32.103Z,100.00
2023-01-20T22:12:00.218Z,100.00
2023-01-20T22:14:28.112Z,100.00
2023-01-20T22:16:56.006Z,100.00
2023-01-20T22:19:24.328Z,100.00
2023-01-20T22:21:53.696Z,100.00
2023-01-20T22:24:21.610Z,100.00
2023-01-20T22:26:49.979Z,100.00
2023-01-20T22:29:18.577Z,100.00
2023-01-20T22:31:47.111Z,100.00
2023-01-20T22:34:15.115Z,100.00
2023-01-20T22:36:43.535Z,100.00
2023-01-20T22:39:13.596Z,100.00
2023-01-20T22:41:41.975Z,100.00
2023-01-20T22:44:10.533Z,100.00
2023-01-20T22:46:38.465Z,100.00
2023-01-20T22:49:06.407Z,100.00
2023-01-20T22:51:34.389Z,100.00
2023-01-20T22:54:03.165Z,100.00
2023-01-20T22:56:33.444Z,100.00
2023-01-20T22:59:01.933Z,100.00
2023-01-20T23:01:32.030Z,100.00
2023-01-20T23:04:02.078Z,100.00
2023-01-20T23:06:32.681Z,100.00
2023-01-20T23:09:01.590Z,100.00
2023-01-20T23:11:29.632Z,100.00
2023-01-20T23:13:58.901Z,100.00
2023-01-20T23:16:26.879Z,100.00
2023-01-20T23:18:54.863Z,100.00
2023-01-20T23:21:24.411Z,100.00
2023-01-20T23:23:54.781Z,100.00
2023-01-20T23:26:24.219Z,100.00
2023-01-20T23:28:53.716Z,100.00
2023-01-20T23:31:24.586Z,100.00
2023-01-20T23:33:54.179Z,100.00
2023-01-20T23:36:23.829Z,100.00
2023-01-20T23:38:53.709Z,100.00
2023-01-20T23:41:21.701Z,100.00
2023-01-20T23:43:49.619Z,100.00
2023-01-20T23:46:17.602Z,100.00
2023-01-20T23:48:47.856Z,100.00
2023-01-20T23:51:15.898Z,100.00
2023-01-20T23:53:44.002Z,100.00
2023-01-20T23:56:13.535Z,100.00
2023-01-20T23:58:41.526Z,100.00
